createdAt,value
2019-06-20T00:00:22.576Z,13.60
2019-06-20T00:01:22.552Z,13.40
2019-06-20T00:02:22.559Z,13.10
2019-06-20T00:03:22.595Z,14.70
2019-06-20T00:04:22.570Z,12.90
2019-06-20T00:05:22.536Z,12.40
2019-06-20T00:06:22.494Z,12.00
2019-06-20T00:07:22.507Z,13.30
2019-06-20T00:08:22.508Z,13.00
2019-06-20T00:09:22.466Z,13.40
2019-06-20T00:10:22.475Z,13.00
2019-06-20T00:11:22.439Z,13.90
2019-06-20T00:12:22.981Z,12.90
2019-06-20T00:13:22.437Z,12.90
2019-06-20T00:14:22.435Z,14.40
2019-06-20T00:15:22.406Z,14.00
2019-06-20T00:16:22.378Z,14.20
2019-06-20T00:17:22.370Z,13.90
2019-06-20T00:18:22.373Z,14.30
2019-06-20T00:19:22.352Z,14.50
2019-06-20T00:20:22.335Z,13.70
2019-06-20T00:21:22.381Z,14.90
2019-06-20T00:22:22.316Z,13.40
2019-06-20T00:23:22.349Z,14.70
2019-06-20T00:24:22.324Z,14.90
2019-06-20T00:25:22.298Z,15.00
2019-06-20T00:26:22.297Z,14.60
2019-06-20T00:27:22.273Z,15.80
2019-06-20T00:28:22.299Z,16.80
2019-06-20T00:29:22.282Z,14.80
2019-06-20T00:30:22.236Z,14.60
2019-06-20T00:31:22.227Z,16.50
2019-06-20T00:32:22.203Z,16.10
2019-06-20T00:33:22.197Z,15.20
2019-06-20T00:34:22.244Z,15.20
2019-06-20T00:35:22.192Z,16.20
2019-06-20T00:36:22.161Z,15.90
2019-06-20T00:37:22.150Z,14.00
2019-06-20T00:38:22.196Z,16.40
2019-06-20T00:39:22.135Z,15.80
2019-06-20T00:40:22.136Z,16.30
2019-06-20T00:41:22.099Z,16.80
2019-06-20T00:42:22.111Z,17.50
2019-06-20T00:43:22.081Z,16.90
2019-06-20T00:44:22.113Z,16.00
2019-06-20T00:45:22.069Z,16.60
2019-06-20T00:46:22.060Z,17.00
2019-06-20T00:47:22.022Z,17.40
2019-06-20T00:48:22.031Z,16.00
2019-06-20T00:49:22.043Z,16.50
2019-06-20T00:50:22.043Z,16.70
2019-06-20T00:51:21.996Z,16.90
2019-06-20T00:52:22.016Z,17.60
2019-06-20T00:53:22.000Z,18.40
2019-06-20T00:54:21.985Z,18.50
2019-06-20T00:55:21.941Z,17.90
2019-06-20T00:56:21.976Z,19.10
2019-06-20T00:57:21.948Z,19.20
2019-06-20T00:58:21.938Z,17.90
2019-06-20T00:59:21.965Z,17.40
2019-06-20T01:00:21.917Z,18.60
2019-06-20T01:01:21.898Z,19.00
2019-06-20T01:03:31.126Z,17.70
2019-06-20T01:04:32.080Z,17.50
2019-06-20T01:05:32.053Z,18.30
2019-06-20T01:06:32.073Z,19.40
2019-06-20T01:07:32.072Z,19.30
2019-06-20T01:08:32.018Z,19.70
2019-06-20T01:09:32.053Z,19.20
2019-06-20T01:10:32.033Z,19.00
2019-06-20T01:11:32.000Z,18.30
2019-06-20T01:12:31.982Z,18.40
2019-06-20T01:13:34.130Z,18.60
2019-06-20T01:14:31.983Z,17.30
2019-06-20T01:15:31.950Z,18.60
2019-06-20T01:16:31.981Z,20.40
2019-06-20T01:17:31.924Z,18.70
2019-06-20T01:18:31.920Z,19.40
2019-06-20T01:19:31.935Z,20.40
2019-06-20T01:20:31.890Z,21.00
2019-06-20T01:21:31.913Z,20.30
2019-06-20T01:22:31.873Z,19.40
2019-06-20T01:23:31.889Z,20.10
2019-06-20T01:24:31.865Z,20.80
2019-06-20T01:25:31.836Z,19.70
2019-06-20T01:26:31.826Z,21.20
2019-06-20T01:27:31.834Z,21.60
2019-06-20T01:28:31.850Z,21.20
2019-06-20T01:29:31.813Z,21.10
2019-06-20T01:30:31.791Z,19.60
2019-06-20T01:31:31.792Z,21.10
2019-06-20T01:32:31.760Z,21.50
2019-06-20T01:33:31.823Z,21.40
2019-06-20T01:34:31.735Z,21.70
2019-06-20T01:35:31.724Z,20.00
2019-06-20T01:36:31.866Z,22.20
2019-06-20T01:37:31.717Z,21.80
2019-06-20T01:38:31.749Z,19.70
2019-06-20T01:39:31.732Z,21.10
2019-06-20T01:40:31.668Z,20.30
2019-06-20T01:41:31.653Z,21.40
2019-06-20T01:42:31.721Z,20.30
2019-06-20T01:43:31.666Z,20.10
2019-06-20T01:44:31.633Z,22.50
2019-06-20T01:45:31.613Z,21.90
2019-06-20T01:46:31.624Z,22.10
2019-06-20T01:47:31.596Z,20.50
2019-06-20T01:48:31.604Z,22.70
2019-06-20T01:49:31.640Z,20.90
2019-06-20T01:50:31.561Z,20.90
2019-06-20T01:51:31.540Z,22.60
2019-06-20T01:52:31.556Z,21.60
2019-06-20T01:53:31.552Z,20.20
2019-06-20T01:54:31.565Z,20.80
2019-06-20T01:55:31.525Z,21.30
2019-06-20T01:56:31.515Z,20.40
2019-06-20T01:57:31.501Z,21.80
2019-06-20T01:58:31.527Z,19.20
2019-06-20T01:59:31.462Z,20.00
2019-06-20T02:00:31.483Z,21.30
2019-06-20T02:01:31.462Z,20.70
2019-06-20T02:02:31.441Z,20.60
2019-06-20T02:03:31.468Z,20.70
2019-06-20T02:04:31.404Z,20.70
2019-06-20T02:05:31.391Z,20.50
2019-06-20T02:06:31.408Z,22.80
2019-06-20T02:07:31.398Z,22.20
2019-06-20T02:08:31.417Z,22.00
2019-06-20T02:09:31.361Z,21.90
2019-06-20T02:10:31.365Z,22.10
2019-06-20T02:11:31.327Z,20.60
2019-06-20T02:12:31.324Z,22.10
2019-06-20T02:13:31.341Z,20.50
2019-06-20T02:14:31.314Z,21.90
2019-06-20T02:15:31.275Z,21.20
2019-06-20T02:16:31.297Z,21.90
2019-06-20T02:17:31.281Z,21.80
2019-06-20T02:18:31.312Z,22.60
2019-06-20T02:19:31.256Z,22.00
2019-06-20T02:20:31.244Z,21.80
2019-06-20T02:21:31.299Z,21.00
2019-06-20T02:22:31.206Z,21.00
2019-06-20T02:23:31.269Z,20.90
2019-06-20T02:24:31.187Z,19.50
2019-06-20T02:25:31.179Z,21.50
2019-06-20T02:26:31.164Z,19.40
2019-06-20T02:27:31.166Z,20.30
2019-06-20T02:28:31.180Z,19.30
2019-06-20T02:29:31.125Z,20.20
2019-06-20T02:30:31.125Z,18.90
2019-06-20T02:31:31.125Z,20.00
2019-06-20T02:32:31.133Z,18.80
2019-06-20T02:33:31.180Z,19.50
2019-06-20T02:34:31.100Z,18.90
2019-06-20T02:35:31.143Z,17.10
2019-06-20T02:36:31.052Z,16.90
2019-06-20T02:37:31.047Z,17.40
2019-06-20T02:38:31.038Z,16.60
2019-06-20T02:39:31.132Z,16.40
2019-06-20T02:40:31.028Z,16.30
2019-06-20T02:41:31.000Z,16.30
2019-06-20T02:42:31.009Z,15.70
2019-06-20T02:43:31.012Z,15.80
2019-06-20T02:44:31.221Z,14.90
2019-06-20T02:45:31.002Z,16.30
2019-06-20T02:46:30.952Z,15.50
2019-06-20T02:47:30.988Z,14.80
2019-06-20T02:48:30.965Z,15.00
2019-06-20T02:49:30.932Z,15.10
2019-06-20T02:50:30.901Z,15.10
2019-06-20T02:51:30.904Z,14.30
2019-06-20T02:52:30.921Z,15.20
2019-06-20T02:53:30.929Z,15.20
2019-06-20T02:54:30.855Z,15.30
2019-06-20T02:55:30.890Z,14.30
2019-06-20T02:56:30.829Z,15.20
2019-06-20T02:57:30.824Z,13.90
2019-06-20T02:58:30.859Z,14.70
2019-06-20T02:59:30.811Z,15.10
2019-06-20T03:00:30.775Z,14.40
2019-06-20T03:01:30.804Z,15.20
2019-06-20T03:02:30.770Z,13.70
2019-06-20T03:04:39.983Z,13.00
2019-06-20T03:05:40.940Z,13.70
2019-06-20T03:06:40.910Z,13.30
2019-06-20T03:07:40.900Z,13.60
2019-06-20T03:08:40.937Z,13.90
2019-06-20T03:09:40.901Z,14.50
2019-06-20T03:10:40.876Z,13.40
2019-06-20T03:11:40.868Z,14.40
2019-06-20T03:12:40.884Z,13.50
2019-06-20T03:13:41.694Z,11.70
2019-06-20T03:14:45.566Z,13.10
2019-06-20T03:15:40.811Z,13.20
2019-06-20T03:16:40.869Z,12.80
2019-06-20T03:17:41.223Z,12.10
2019-06-20T03:18:41.696Z,13.30
2019-06-20T03:19:40.844Z,12.70
2019-06-20T03:20:40.798Z,13.50
2019-06-20T03:21:40.749Z,12.80
2019-06-20T03:22:40.857Z,14.30
2019-06-20T03:23:40.728Z,13.50
2019-06-20T03:24:40.718Z,12.80
2019-06-20T03:25:40.695Z,13.30
2019-06-20T03:26:40.694Z,14.40
2019-06-20T03:27:40.700Z,13.90
2019-06-20T03:28:40.669Z,14.80
2019-06-20T03:29:40.651Z,12.70
2019-06-20T03:30:40.646Z,13.00
2019-06-20T03:31:40.638Z,12.80
2019-06-20T03:32:40.648Z,13.30
2019-06-20T03:33:40.616Z,13.90
2019-06-20T03:34:40.608Z,12.80
2019-06-20T03:35:40.588Z,13.00
2019-06-20T03:36:40.572Z,13.50
2019-06-20T03:37:40.571Z,13.50
2019-06-20T03:38:40.553Z,13.00
2019-06-20T03:39:40.553Z,13.20
2019-06-20T03:40:40.537Z,13.40
2019-06-20T03:41:40.525Z,13.60
2019-06-20T03:42:40.534Z,14.00
2019-06-20T03:43:40.501Z,13.00
2019-06-20T03:44:40.497Z,15.10
2019-06-20T03:45:40.475Z,13.70
2019-06-20T03:46:40.469Z,14.30
2019-06-20T03:47:40.474Z,12.90
2019-06-20T03:48:40.447Z,13.00
2019-06-20T03:49:40.430Z,13.20
2019-06-20T03:50:40.410Z,13.60
2019-06-20T03:51:40.414Z,12.50
2019-06-20T03:52:40.419Z,12.70
2019-06-20T03:53:40.411Z,12.80
2019-06-20T03:54:40.388Z,14.60
2019-06-20T03:55:40.363Z,12.80
2019-06-20T03:56:40.355Z,14.10
2019-06-20T03:57:40.347Z,14.70
2019-06-20T03:58:40.332Z,12.40
2019-06-20T03:59:40.330Z,14.30
2019-06-20T04:00:40.298Z,13.60
2019-06-20T04:01:40.290Z,14.90
2019-06-20T04:02:40.304Z,13.70
2019-06-20T04:03:40.304Z,18.60
2019-06-20T04:04:40.258Z,15.50
2019-06-20T04:05:40.248Z,19.40
2019-06-20T04:06:40.257Z,17.90
2019-06-20T04:07:40.241Z,19.70
2019-06-20T04:08:40.222Z,22.00
2019-06-20T04:09:40.206Z,21.40
2019-06-20T04:10:40.191Z,22.40
2019-06-20T04:11:40.178Z,23.40
2019-06-20T04:12:40.289Z,27.30
2019-06-20T04:13:40.163Z,26.30
2019-06-20T04:14:40.154Z,25.10
2019-06-20T04:15:40.141Z,27.20
2019-06-20T04:16:40.136Z,26.40
2019-06-20T04:17:40.131Z,26.80
2019-06-20T04:18:40.122Z,32.70
2019-06-20T04:19:40.093Z,28.00
2019-06-20T04:20:40.080Z,28.50
2019-06-20T04:21:40.091Z,30.80
2019-06-20T04:22:40.062Z,28.80
2019-06-20T04:23:40.056Z,33.20
2019-06-20T04:24:40.055Z,31.10
2019-06-20T04:25:40.034Z,32.80
2019-06-20T04:26:40.008Z,31.00
2019-06-20T04:27:40.014Z,35.00
2019-06-20T04:28:40.013Z,33.60
2019-06-20T04:29:39.979Z,34.00
2019-06-20T04:30:39.963Z,32.50
2019-06-20T04:31:39.966Z,34.70
2019-06-20T04:32:39.943Z,34.40
2019-06-20T04:33:39.968Z,36.50
2019-06-20T04:34:39.934Z,38.40
2019-06-20T04:35:39.917Z,37.80
2019-06-20T04:36:39.897Z,39.90
2019-06-20T04:37:39.919Z,39.00
2019-06-20T04:38:39.901Z,35.70
2019-06-20T04:39:39.940Z,40.90
2019-06-20T04:40:39.864Z,38.80
2019-06-20T04:41:39.856Z,38.50
2019-06-20T04:42:39.850Z,38.20
2019-06-20T04:43:39.842Z,38.60
2019-06-20T04:44:39.825Z,40.00
2019-06-20T04:45:39.825Z,39.50
2019-06-20T04:46:39.794Z,39.50
2019-06-20T04:47:39.792Z,42.50
2019-06-20T04:48:39.798Z,40.70
2019-06-20T04:49:39.767Z,41.70
2019-06-20T04:50:39.754Z,44.00
2019-06-20T04:51:39.893Z,41.30
2019-06-20T04:52:39.725Z,41.30
2019-06-20T04:53:39.748Z,42.70
2019-06-20T04:54:39.707Z,42.60
2019-06-20T04:55:39.741Z,42.10
2019-06-20T04:56:39.681Z,45.10
2019-06-20T04:57:39.673Z,40.90
2019-06-20T04:58:39.683Z,42.70
2019-06-20T04:59:39.650Z,43.30
2019-06-20T05:00:39.634Z,42.70
2019-06-20T05:01:39.663Z,45.50
2019-06-20T05:02:39.836Z,43.40
2019-06-20T05:03:39.632Z,42.00
2019-06-20T05:05:48.818Z,46.00
2019-06-20T05:06:49.802Z,40.80
2019-06-20T05:07:49.835Z,39.60
2019-06-20T05:08:49.779Z,37.80
2019-06-20T05:09:49.737Z,35.70
2019-06-20T05:10:50.524Z,31.80
2019-06-20T05:11:49.733Z,31.30
2019-06-20T05:12:49.717Z,28.80
2019-06-20T05:13:49.732Z,30.10
2019-06-20T05:14:49.689Z,27.00
2019-06-20T05:15:53.121Z,26.10
2019-06-20T05:16:49.664Z,25.00
2019-06-20T05:17:49.657Z,25.50
2019-06-20T05:18:49.776Z,24.60
2019-06-20T05:19:49.642Z,24.20
2019-06-20T05:20:49.620Z,23.20
2019-06-20T05:21:49.617Z,23.90
2019-06-20T05:22:49.625Z,24.30
2019-06-20T05:23:49.604Z,21.50
2019-06-20T05:24:49.593Z,19.20
2019-06-20T05:25:49.567Z,20.60
2019-06-20T05:26:49.554Z,21.40
2019-06-20T05:27:49.553Z,20.40
2019-06-20T05:28:49.581Z,19.70
2019-06-20T05:29:49.533Z,20.60
2019-06-20T05:30:49.530Z,19.20
2019-06-20T05:31:49.512Z,19.70
2019-06-20T05:32:49.498Z,20.30
2019-06-20T05:33:49.478Z,20.60
2019-06-20T05:34:49.482Z,20.50
2019-06-20T05:35:49.464Z,20.30
2019-06-20T05:36:49.454Z,20.60
2019-06-20T05:37:49.436Z,20.40
2019-06-20T05:38:49.438Z,21.40
2019-06-20T05:39:49.441Z,21.90
2019-06-20T05:40:49.430Z,21.20
2019-06-20T05:41:49.396Z,21.40
2019-06-20T05:42:49.380Z,24.30
2019-06-20T05:43:49.365Z,22.30
2019-06-20T05:44:49.388Z,21.10
2019-06-20T05:45:49.349Z,23.10
2019-06-20T05:46:49.325Z,21.50
2019-06-20T05:47:49.876Z,22.10
2019-06-20T05:48:49.324Z,22.70
2019-06-20T05:49:49.318Z,22.00
2019-06-20T05:50:49.297Z,21.50
2019-06-20T05:51:49.281Z,22.70
2019-06-20T05:52:49.271Z,20.60
2019-06-20T05:53:49.261Z,21.20
2019-06-20T05:54:49.259Z,21.70
2019-06-20T05:55:49.229Z,21.00
2019-06-20T05:56:49.220Z,20.10
2019-06-20T05:57:49.225Z,19.70
2019-06-20T05:58:49.205Z,21.70
2019-06-20T05:59:49.208Z,19.70
2019-06-20T06:00:49.219Z,21.20
2019-06-20T06:01:49.171Z,19.00
2019-06-20T06:02:49.151Z,19.10
2019-06-20T06:03:49.136Z,18.30
2019-06-20T06:04:49.143Z,20.70
2019-06-20T06:05:49.128Z,19.40
2019-06-20T06:06:49.108Z,19.80
2019-06-20T06:07:49.173Z,21.00
2019-06-20T06:08:49.122Z,20.20
2019-06-20T06:09:49.133Z,19.40
2019-06-20T06:10:49.065Z,20.30
2019-06-20T06:11:49.073Z,21.20
2019-06-20T06:12:49.040Z,20.30
2019-06-20T06:13:49.043Z,20.30
2019-06-20T06:14:49.159Z,19.60
2019-06-20T06:15:49.011Z,22.90
2019-06-20T06:16:49.010Z,21.20
2019-06-20T06:17:48.997Z,22.20
2019-06-20T06:18:48.982Z,20.90
2019-06-20T06:19:48.984Z,21.70
2019-06-20T06:20:48.960Z,21.70
2019-06-20T06:21:48.942Z,22.30
2019-06-20T06:22:48.925Z,24.60
2019-06-20T06:23:48.938Z,22.70
2019-06-20T06:24:48.927Z,25.30
2019-06-20T06:25:48.915Z,26.50
2019-06-20T06:26:48.884Z,26.40
2019-06-20T06:27:48.875Z,27.40
2019-06-20T06:28:48.911Z,26.40
2019-06-20T06:29:48.879Z,28.00
2019-06-20T06:30:48.841Z,28.80
2019-06-20T06:31:48.845Z,30.50
2019-06-20T06:32:48.836Z,30.50
2019-06-20T06:33:48.815Z,31.60
2019-06-20T06:34:48.822Z,31.20
2019-06-20T06:35:48.826Z,31.90
2019-06-20T06:36:48.813Z,31.60
2019-06-20T06:37:48.772Z,30.90
2019-06-20T06:38:48.772Z,32.40
2019-06-20T06:39:48.757Z,32.50
2019-06-20T06:40:48.750Z,33.00
2019-06-20T06:41:48.773Z,32.10
2019-06-20T06:42:48.716Z,34.50
2019-06-20T06:43:48.741Z,34.70
2019-06-20T06:44:48.688Z,33.10
2019-06-20T06:45:48.699Z,34.80
2019-06-20T06:46:55.373Z,33.90
2019-06-20T06:47:48.653Z,34.60
2019-06-20T06:48:48.646Z,36.90
2019-06-20T06:49:48.685Z,34.80
2019-06-20T06:50:48.655Z,36.10
2019-06-20T06:51:48.607Z,34.80
2019-06-20T06:52:48.609Z,36.10
2019-06-20T06:53:48.589Z,36.90
2019-06-20T06:54:48.610Z,37.20
2019-06-20T06:55:48.579Z,36.30
2019-06-20T06:56:48.575Z,36.80
2019-06-20T06:57:48.555Z,35.50
2019-06-20T06:58:48.539Z,36.20
2019-06-20T06:59:48.536Z,36.00
2019-06-20T07:00:48.553Z,37.10
2019-06-20T07:01:48.508Z,37.90
2019-06-20T07:02:49.064Z,37.70
2019-06-20T07:03:48.483Z,36.80
2019-06-20T07:04:48.469Z,37.20
2019-06-20T07:06:57.666Z,36.50
2019-06-20T07:07:58.643Z,37.20
2019-06-20T07:08:58.639Z,37.00
2019-06-20T07:09:58.618Z,38.30
2019-06-20T07:10:58.619Z,38.30
2019-06-20T07:11:58.593Z,39.10
2019-06-20T07:12:58.593Z,39.10
2019-06-20T07:13:58.630Z,39.30
2019-06-20T07:14:58.573Z,37.80
2019-06-20T07:15:58.565Z,36.50
2019-06-20T07:17:00.569Z,37.20
2019-06-20T07:17:58.530Z,39.00
2019-06-20T07:18:58.514Z,37.30
2019-06-20T07:19:58.514Z,39.40
2019-06-20T07:20:58.963Z,38.50
2019-06-20T07:21:58.484Z,39.60
2019-06-20T07:22:58.473Z,39.70
2019-06-20T07:23:58.464Z,39.30
2019-06-20T07:24:58.440Z,38.00
2019-06-20T07:25:58.453Z,38.50
2019-06-20T07:26:58.447Z,38.10
2019-06-20T07:27:58.440Z,38.90
2019-06-20T07:28:58.396Z,36.80
2019-06-20T07:29:58.399Z,39.50
2019-06-20T07:30:58.390Z,39.20
2019-06-20T07:31:58.399Z,38.30
2019-06-20T07:32:58.365Z,39.80
2019-06-20T07:33:58.359Z,40.50
2019-06-20T07:34:58.348Z,37.60
2019-06-20T07:35:58.335Z,38.00
2019-06-20T07:36:58.351Z,38.10
2019-06-20T07:37:58.303Z,39.00
2019-06-20T07:38:58.298Z,36.10
2019-06-20T07:39:58.290Z,38.70
2019-06-20T07:40:58.299Z,36.40
2019-06-20T07:41:58.285Z,38.10
2019-06-20T07:42:58.266Z,39.80
2019-06-20T07:43:58.233Z,34.80
2019-06-20T07:44:58.241Z,38.00
2019-06-20T07:46:02.571Z,37.30
2019-06-20T07:46:58.223Z,39.90
2019-06-20T07:47:58.204Z,39.80
2019-06-20T07:48:58.181Z,41.00
2019-06-20T07:49:58.172Z,39.80
2019-06-20T07:50:58.160Z,40.00
2019-06-20T07:51:58.183Z,39.80
2019-06-20T07:53:02.526Z,39.50
2019-06-20T07:53:58.136Z,37.30
2019-06-20T07:54:58.133Z,37.80
2019-06-20T07:55:58.108Z,39.50
2019-06-20T07:56:58.124Z,38.90
2019-06-20T07:57:58.075Z,38.70
2019-06-20T07:58:58.061Z,39.30
2019-06-20T07:59:58.064Z,37.80
2019-06-20T08:00:58.050Z,37.80
2019-06-20T08:01:58.058Z,38.00
2019-06-20T08:02:58.052Z,35.90
2019-06-20T08:03:58.031Z,37.00
2019-06-20T08:04:57.999Z,39.10
2019-06-20T08:05:57.996Z,38.00
2019-06-20T08:06:57.991Z,39.10
2019-06-20T08:07:58.042Z,37.70
2019-06-20T08:08:57.954Z,36.40
2019-06-20T08:09:57.959Z,38.20
2019-06-20T08:10:57.939Z,37.60
2019-06-20T08:11:57.939Z,37.80
2019-06-20T08:12:57.928Z,38.70
2019-06-20T08:13:57.916Z,38.90
2019-06-20T08:15:13.776Z,39.40
2019-06-20T08:15:57.957Z,39.80
2019-06-20T08:16:57.870Z,39.30
2019-06-20T08:17:57.879Z,37.70
2019-06-20T08:18:57.886Z,41.20
2019-06-20T08:19:57.850Z,37.90
2019-06-20T08:20:57.826Z,38.50
2019-06-20T08:21:57.831Z,38.60
2019-06-20T08:22:57.842Z,37.20
2019-06-20T08:23:57.811Z,36.10
2019-06-20T08:24:58.955Z,37.80
2019-06-20T08:25:59.191Z,38.20
2019-06-20T08:26:58.724Z,38.30
2019-06-20T08:27:59.459Z,37.40
2019-06-20T08:29:10.160Z,42.90
2019-06-20T08:29:58.998Z,39.60
2019-06-20T08:30:58.880Z,41.90
2019-06-20T08:31:59.395Z,42.10
2019-06-20T08:32:59.643Z,40.30
2019-06-20T08:33:58.890Z,43.30
2019-06-20T08:34:59.063Z,41.70
2019-06-20T08:35:58.931Z,44.10
2019-06-20T08:36:58.932Z,43.40
2019-06-20T08:37:59.193Z,43.20
2019-06-20T08:38:58.745Z,42.50
2019-06-20T08:39:58.420Z,42.30
2019-06-20T08:40:58.362Z,44.70
2019-06-20T08:41:59.190Z,46.00
2019-06-20T08:42:58.858Z,46.70
2019-06-20T08:43:58.394Z,44.10
2019-06-20T08:44:57.909Z,46.50
2019-06-20T08:45:57.873Z,45.80
2019-06-20T08:46:59.217Z,45.10
2019-06-20T08:47:58.304Z,44.80
2019-06-20T08:48:58.256Z,45.70
2019-06-20T08:49:58.180Z,44.70
2019-06-20T08:50:58.522Z,45.10
2019-06-20T08:51:57.488Z,45.60
2019-06-20T08:52:58.015Z,45.90
2019-06-20T08:53:58.199Z,46.30
2019-06-20T08:54:58.244Z,45.40
2019-06-20T08:55:59.266Z,46.20
2019-06-20T08:56:58.982Z,47.40
2019-06-20T08:57:58.253Z,46.60
2019-06-20T08:58:58.532Z,45.30
2019-06-20T08:59:58.788Z,47.20
2019-06-20T09:00:59.666Z,46.60
2019-06-20T09:01:59.965Z,46.50
2019-06-20T09:02:58.615Z,46.20
2019-06-20T09:03:58.292Z,46.00
2019-06-20T09:04:58.039Z,44.00
2019-06-20T09:05:58.256Z,41.50
2019-06-20T09:08:06.561Z,38.60
2019-06-20T09:09:07.507Z,40.90
2019-06-20T09:10:07.476Z,41.60
2019-06-20T09:11:07.473Z,41.60
2019-06-20T09:12:07.457Z,40.20
2019-06-20T09:13:07.453Z,40.60
2019-06-20T09:14:07.458Z,42.20
2019-06-20T09:15:07.434Z,41.10
2019-06-20T09:16:07.420Z,40.20
2019-06-20T09:17:07.422Z,41.00
2019-06-20T09:18:07.402Z,41.70
2019-06-20T09:19:07.416Z,42.30
2019-06-20T09:20:07.387Z,41.60
2019-06-20T09:21:07.370Z,38.00
2019-06-20T09:22:07.358Z,39.60
2019-06-20T09:23:07.342Z,37.40
2019-06-20T09:24:07.356Z,38.60
2019-06-20T09:25:07.318Z,35.50
2019-06-20T09:26:07.322Z,37.90
2019-06-20T09:27:07.304Z,37.10
2019-06-20T09:28:07.276Z,39.80
2019-06-20T09:29:07.288Z,38.30
2019-06-20T09:30:07.254Z,38.10
2019-06-20T09:31:07.451Z,38.20
2019-06-20T09:32:07.249Z,34.70
2019-06-20T09:33:07.232Z,36.30
2019-06-20T09:34:07.269Z,35.90
2019-06-20T09:35:07.216Z,35.90
2019-06-20T09:36:07.197Z,35.10
2019-06-20T09:37:07.189Z,34.30
2019-06-20T09:38:07.165Z,34.00
2019-06-20T09:39:07.179Z,35.50
2019-06-20T09:40:07.150Z,33.80
2019-06-20T09:41:07.146Z,33.80
2019-06-20T09:42:07.133Z,34.20
2019-06-20T09:43:07.119Z,34.70
2019-06-20T09:44:07.133Z,34.20
2019-06-20T09:45:07.117Z,33.70
2019-06-20T09:46:07.100Z,32.50
2019-06-20T09:47:07.106Z,32.90
2019-06-20T09:48:07.094Z,33.10
2019-06-20T09:49:07.083Z,33.50
2019-06-20T09:50:07.053Z,33.60
2019-06-20T09:51:07.042Z,34.60
2019-06-20T09:52:07.032Z,34.20
2019-06-20T09:53:07.016Z,33.20
2019-06-20T09:54:07.007Z,35.00
2019-06-20T09:55:07.011Z,33.40
2019-06-20T09:56:06.983Z,36.30
2019-06-20T09:57:06.969Z,36.70
2019-06-20T09:58:06.989Z,38.30
2019-06-20T09:59:06.957Z,36.30
2019-06-20T10:00:10.397Z,34.10
2019-06-20T10:01:06.929Z,32.60
2019-06-20T10:02:06.906Z,34.80
2019-06-20T10:03:06.908Z,35.70
2019-06-20T10:04:06.922Z,31.70
2019-06-20T10:05:06.896Z,34.10
2019-06-20T10:06:14.053Z,34.70
2019-06-20T10:07:06.852Z,32.40
2019-06-20T10:08:06.855Z,30.70
2019-06-20T10:09:06.848Z,31.00
2019-06-20T10:10:06.858Z,30.70
2019-06-20T10:11:06.810Z,27.60
2019-06-20T10:12:06.798Z,29.10
2019-06-20T10:13:06.799Z,29.70
2019-06-20T10:14:06.797Z,30.50
2019-06-20T10:15:06.789Z,30.70
2019-06-20T10:16:06.758Z,28.30
2019-06-20T10:17:06.750Z,26.70
2019-06-20T10:18:06.735Z,27.80
2019-06-20T10:19:06.746Z,27.40
2019-06-20T10:20:06.739Z,30.20
2019-06-20T10:21:06.712Z,29.00
2019-06-20T10:22:06.697Z,31.00
2019-06-20T10:23:06.714Z,24.90
2019-06-20T10:24:06.678Z,26.00
2019-06-20T10:25:06.668Z,25.20
2019-06-20T10:26:06.644Z,31.10
2019-06-20T10:27:06.642Z,29.90
2019-06-20T10:28:06.639Z,25.80
2019-06-20T10:29:06.617Z,24.20
2019-06-20T10:30:14.445Z,32.10
2019-06-20T10:31:06.597Z,31.00
2019-06-20T10:32:06.593Z,27.70
2019-06-20T10:33:06.576Z,27.20
2019-06-20T10:34:06.559Z,24.80
2019-06-20T10:35:06.568Z,26.10
2019-06-20T10:36:06.557Z,26.50
2019-06-20T10:37:06.544Z,27.90
2019-06-20T10:38:06.531Z,26.60
2019-06-20T10:39:06.513Z,29.10
2019-06-20T10:40:06.537Z,28.00
2019-06-20T10:41:06.493Z,27.50
2019-06-20T10:42:06.480Z,28.80
2019-06-20T10:43:06.460Z,28.20
2019-06-20T10:44:06.455Z,28.40
2019-06-20T10:45:06.460Z,28.20
2019-06-20T10:46:06.454Z,27.40
2019-06-20T10:47:06.432Z,27.40
2019-06-20T10:48:06.406Z,27.30
2019-06-20T10:49:06.387Z,27.90
2019-06-20T10:50:06.418Z,28.50
2019-06-20T10:51:06.398Z,26.70
2019-06-20T10:52:06.378Z,26.70
2019-06-20T10:53:06.343Z,28.10
2019-06-20T10:54:06.344Z,27.70
2019-06-20T10:55:06.329Z,27.60
2019-06-20T10:56:06.342Z,26.80
2019-06-20T10:57:06.304Z,26.80
2019-06-20T10:58:06.333Z,25.60
2019-06-20T10:59:06.286Z,25.50
2019-06-20T11:00:06.347Z,25.60
2019-06-20T11:01:06.285Z,26.10
2019-06-20T11:02:07.266Z,26.40
2019-06-20T11:03:06.249Z,23.70
2019-06-20T11:04:06.237Z,23.20
2019-06-20T11:05:06.217Z,25.90
2019-06-20T11:06:06.228Z,25.00
2019-06-20T11:07:06.229Z,21.80
2019-06-20T11:09:15.387Z,20.40
2019-06-20T11:10:16.365Z,21.30
2019-06-20T11:11:16.378Z,22.60
2019-06-20T11:12:16.343Z,24.50
2019-06-20T11:13:16.333Z,24.50
2019-06-20T11:14:16.318Z,23.30
2019-06-20T11:15:16.321Z,21.60
2019-06-20T11:16:16.324Z,20.30
2019-06-20T11:17:16.300Z,20.90
2019-06-20T11:18:16.280Z,21.60
2019-06-20T11:19:16.269Z,22.80
2019-06-20T11:20:16.252Z,22.60
2019-06-20T11:21:16.271Z,20.90
2019-06-20T11:22:16.232Z,18.30
2019-06-20T11:23:16.232Z,16.90
2019-06-20T11:24:16.220Z,16.60
2019-06-20T11:25:18.966Z,15.30
2019-06-20T11:26:16.266Z,15.30
2019-06-20T11:27:16.183Z,14.00
2019-06-20T11:28:16.177Z,11.70
2019-06-20T11:29:16.218Z,10.70
2019-06-20T11:30:16.157Z,11.20
2019-06-20T11:31:16.232Z,12.10
2019-06-20T11:32:16.155Z,12.80
2019-06-20T11:33:16.134Z,12.30
2019-06-20T11:34:16.107Z,12.80
2019-06-20T11:35:16.096Z,12.90
2019-06-20T11:36:16.093Z,10.50
2019-06-20T11:37:16.092Z,9.80
2019-06-20T11:38:16.096Z,11.60
2019-06-20T11:39:16.061Z,10.90
2019-06-20T11:40:16.046Z,10.60
2019-06-20T11:41:16.032Z,11.50
2019-06-20T11:42:16.037Z,13.50
2019-06-20T11:43:16.010Z,11.50
2019-06-20T11:44:16.010Z,10.90
2019-06-20T11:45:15.995Z,10.50
2019-06-20T11:46:15.991Z,9.80
2019-06-20T11:47:16.004Z,10.60
2019-06-20T11:48:15.959Z,10.00
2019-06-20T11:49:15.978Z,10.60
2019-06-20T11:50:15.946Z,11.70
2019-06-20T11:51:15.927Z,11.20
2019-06-20T11:52:15.933Z,10.10
2019-06-20T11:53:15.925Z,10.40
2019-06-20T11:54:15.902Z,9.60
2019-06-20T11:55:15.887Z,10.30
2019-06-20T11:56:15.878Z,9.30
2019-06-20T11:57:15.885Z,9.80
2019-06-20T11:58:15.849Z,12.50
2019-06-20T11:59:15.874Z,11.00
2019-06-20T12:00:15.837Z,11.50
2019-06-20T12:01:15.820Z,11.60
2019-06-20T12:02:15.828Z,10.90
2019-06-20T12:03:15.805Z,12.10
2019-06-20T12:04:15.818Z,13.10
2019-06-20T12:05:15.776Z,12.80
2019-06-20T12:06:15.774Z,13.70
2019-06-20T12:07:15.784Z,12.50
2019-06-20T12:08:15.746Z,13.00
2019-06-20T12:09:15.745Z,12.40
2019-06-20T12:10:15.727Z,12.70
2019-06-20T12:11:15.720Z,12.20
2019-06-20T12:12:15.721Z,12.00
2019-06-20T12:13:15.700Z,12.30
2019-06-20T12:14:15.681Z,12.20
2019-06-20T12:15:15.677Z,11.40
2019-06-20T12:16:15.680Z,11.20
2019-06-20T12:17:15.710Z,10.50
2019-06-20T12:18:15.634Z,10.10
2019-06-20T12:19:15.631Z,9.90
2019-06-20T12:20:15.662Z,9.80
2019-06-20T12:21:15.667Z,9.70
2019-06-20T12:22:15.641Z,10.80
2019-06-20T12:23:15.591Z,9.70
2019-06-20T12:24:16.147Z,9.00
2019-06-20T12:25:15.572Z,11.00
2019-06-20T12:26:15.552Z,11.40
2019-06-20T12:27:15.561Z,13.70
2019-06-20T12:28:15.558Z,12.10
2019-06-20T12:29:15.534Z,10.70
2019-06-20T12:30:15.527Z,10.50
2019-06-20T12:31:19.553Z,11.40
2019-06-20T12:32:15.496Z,12.00
2019-06-20T12:33:15.507Z,12.50
2019-06-20T12:34:15.470Z,11.90
2019-06-20T12:35:15.469Z,11.00
2019-06-20T12:36:15.448Z,11.10
2019-06-20T12:37:15.447Z,10.80
2019-06-20T12:38:15.449Z,10.20
2019-06-20T12:39:15.431Z,10.00
2019-06-20T12:40:15.411Z,8.80
2019-06-20T12:41:15.421Z,9.90
2019-06-20T12:42:15.398Z,8.50
2019-06-20T12:43:15.428Z,8.80
2019-06-20T12:44:15.373Z,7.60
2019-06-20T12:45:15.414Z,7.60
2019-06-20T12:46:15.407Z,7.70
2019-06-20T12:47:15.360Z,7.20
2019-06-20T12:48:15.570Z,9.80
2019-06-20T12:49:15.310Z,8.10
2019-06-20T12:50:15.312Z,8.70
2019-06-20T12:51:15.288Z,8.80
2019-06-20T12:52:15.307Z,8.10
2019-06-20T12:53:15.291Z,7.20
2019-06-20T12:54:15.255Z,9.00
2019-06-20T12:55:15.272Z,7.00
2019-06-20T12:56:15.255Z,8.00
2019-06-20T12:57:15.243Z,8.20
2019-06-20T12:58:15.242Z,10.80
2019-06-20T12:59:15.213Z,10.50
2019-06-20T13:00:15.191Z,7.70